Terminal Aerodrome Forecast
Issued by NWS

Home | Current Version | Previous Version | Text Only | Print | Product List | Glossary On
Versions: 1 2 3 4 5 6 7 8 9 10 11
000
FTUS45 KPSR 272300
TAFBLH
TAF
KBLH 272320Z 2800/2824 35007KT P6SM FEW200
     FM281500 VRB04KT P6SM BKN180=

USA.gov is the U.S. government's official web portal to all federal, state and local government web resources and services.